createdAt,value
2018-06-10T00:00:08.311Z,18.80
2018-06-10T00:03:10.328Z,19.50
2018-06-10T00:06:15.507Z,20.90
2018-06-10T00:09:17.571Z,19.87
2018-06-10T00:12:20.343Z,19.77
2018-06-10T00:15:22.309Z,20.07
2018-06-10T00:18:24.385Z,19.33
2018-06-10T00:21:26.437Z,20.53
2018-06-10T00:24:28.407Z,18.87
2018-06-10T00:27:31.043Z,19.53
2018-06-10T00:30:33.095Z,18.67
2018-06-10T00:33:35.103Z,17.93
2018-06-10T00:36:37.210Z,18.50
2018-06-10T00:39:39.269Z,17.70
2018-06-10T00:42:41.223Z,18.40
2018-06-10T00:45:43.334Z,18.10
2018-06-10T00:48:45.374Z,17.53
2018-06-10T00:51:47.425Z,18.87
2018-06-10T00:54:49.503Z,18.47
2018-06-10T00:57:51.575Z,17.43
2018-06-10T01:00:53.532Z,17.17
2018-06-10T01:03:55.647Z,17.47
2018-06-10T01:06:57.704Z,17.03
2018-06-10T01:10:00.327Z,16.40
2018-06-10T01:13:03.471Z,15.90
2018-06-10T01:16:05.522Z,16.07
2018-06-10T01:19:07.578Z,17.27
2018-06-10T01:22:09.689Z,15.83
2018-06-10T01:25:11.722Z,15.50
2018-06-10T01:28:13.789Z,16.97
2018-06-10T01:31:15.790Z,15.77
2018-06-10T01:34:17.826Z,16.90
2018-06-10T01:37:20.547Z,15.03
2018-06-10T01:40:22.590Z,16.33
2018-06-10T01:43:24.522Z,16.60
2018-06-10T01:46:26.529Z,17.20
2018-06-10T01:49:28.575Z,15.80
2018-06-10T01:52:30.640Z,17.10
2018-06-10T01:55:32.710Z,16.60
2018-06-10T01:58:35.831Z,16.30
2018-06-10T02:01:37.860Z,14.97
2018-06-10T02:04:39.851Z,16.50
2018-06-10T02:07:41.925Z,15.97
2018-06-10T02:10:43.990Z,14.80
2018-06-10T02:13:46.103Z,15.17
2018-06-10T02:16:48.224Z,14.80
2018-06-10T02:19:51.008Z,15.67
2018-06-10T02:22:52.963Z,14.80
2018-06-10T02:25:55.066Z,14.67
2018-06-10T02:28:57.110Z,15.50
2018-06-10T02:31:59.192Z,15.50
2018-06-10T02:35:01.238Z,15.63
2018-06-10T02:38:03.361Z,15.27
2018-06-10T02:41:05.746Z,15.30
2018-06-10T02:44:08.792Z,15.63
2018-06-10T02:47:10.863Z,16.20
2018-06-10T02:50:12.926Z,16.20
2018-06-10T02:53:14.888Z,16.30
2018-06-10T02:56:17.986Z,16.90
2018-06-10T02:59:21.176Z,15.80
2018-06-10T03:02:23.281Z,17.60
2018-06-10T03:05:25.337Z,17.40
2018-06-10T03:08:27.422Z,15.97
2018-06-10T03:11:29.543Z,14.70
2018-06-10T03:14:31.623Z,16.17
2018-06-10T03:17:33.567Z,16.03
2018-06-10T03:20:35.650Z,16.43
2018-06-10T03:23:37.731Z,15.97
2018-06-10T03:26:39.863Z,16.07
2018-06-10T03:29:41.881Z,16.10
2018-06-10T03:32:43.932Z,16.23
2018-06-10T03:35:46.007Z,17.10
2018-06-10T03:38:47.949Z,17.93
2018-06-10T03:41:51.076Z,17.63
2018-06-10T03:44:53.123Z,16.00
2018-06-10T03:47:55.215Z,17.40
2018-06-10T03:50:57.171Z,15.57
2018-06-10T03:53:59.985Z,17.13
2018-06-10T03:57:02.030Z,17.70
2018-06-10T04:00:04.138Z,17.33
2018-06-10T04:03:06.191Z,17.07
2018-06-10T04:06:09.271Z,16.70
2018-06-10T04:09:11.357Z,16.03
2018-06-10T04:12:13.405Z,15.00
2018-06-10T04:15:15.434Z,15.77
2018-06-10T04:18:17.532Z,16.03
2018-06-10T04:21:19.443Z,16.00
2018-06-10T04:24:21.459Z,16.73
2018-06-10T04:27:23.554Z,15.33
2018-06-10T04:30:25.607Z,15.73
2018-06-10T04:33:27.682Z,20.00
2018-06-10T04:36:30.667Z,18.20
2018-06-10T04:39:32.739Z,16.93
2018-06-10T04:42:34.823Z,16.17
2018-06-10T04:45:36.863Z,17.57
2018-06-10T04:48:38.936Z,16.77
2018-06-10T04:51:41.027Z,18.93
2018-06-10T04:54:43.282Z,17.07
2018-06-10T04:57:46.403Z,16.67
2018-06-10T05:00:48.485Z,16.60
2018-06-10T05:03:50.499Z,17.63
2018-06-10T05:06:52.479Z,18.33
2018-06-10T05:09:54.543Z,17.93
2018-06-10T05:12:57.569Z,15.60
2018-06-10T05:16:00.361Z,16.33
2018-06-10T05:19:03.372Z,17.33
2018-06-10T05:22:05.583Z,17.23
2018-06-10T05:25:08.675Z,18.27
2018-06-10T05:28:10.784Z,16.20
2018-06-10T05:31:13.872Z,16.27
2018-06-10T05:34:15.932Z,15.17
2018-06-10T05:37:18.051Z,16.77
2018-06-10T05:40:20.179Z,16.37
2018-06-10T05:43:22.275Z,14.70
2018-06-10T05:46:24.279Z,15.93
2018-06-10T05:49:27.494Z,17.63
2018-06-10T05:52:29.527Z,16.47
2018-06-10T05:55:31.616Z,15.93
2018-06-10T05:58:33.853Z,16.93
2018-06-10T06:01:35.824Z,16.07
2018-06-10T06:04:38.430Z,17.37
2018-06-10T06:07:40.490Z,17.20
2018-06-10T06:10:42.468Z,17.47
2018-06-10T06:13:44.558Z,18.00
2018-06-10T06:16:46.661Z,17.80
2018-06-10T06:19:48.675Z,16.13
2018-06-10T06:22:51.687Z,15.40
2018-06-10T06:25:53.751Z,17.60
2018-06-10T06:28:55.819Z,17.47
2018-06-10T06:31:57.891Z,17.23
2018-06-10T06:34:59.947Z,15.97
2018-06-10T06:38:02.074Z,16.97
2018-06-10T06:41:04.095Z,18.23
2018-06-10T06:44:06.360Z,16.30
2018-06-10T06:47:09.503Z,18.00
2018-06-10T06:50:11.521Z,16.87
2018-06-10T06:53:14.096Z,17.10
2018-06-10T06:56:16.199Z,17.47
2018-06-10T06:59:18.228Z,19.30
2018-06-10T07:02:20.312Z,17.37
2018-06-10T07:05:23.763Z,16.80
2018-06-10T07:08:26.140Z,19.40
2018-06-10T07:11:30.206Z,19.83
2018-06-10T07:14:32.690Z,17.97
2018-06-10T07:17:36.774Z,20.03
2018-06-10T07:20:38.880Z,18.70
2018-06-10T07:23:40.970Z,18.73
2018-06-10T07:26:42.911Z,20.20
2018-06-10T07:29:44.948Z,21.00
2018-06-10T07:32:47.027Z,19.30
2018-06-10T07:35:49.007Z,18.97
2018-06-10T07:38:52.008Z,18.27
2018-06-10T07:41:54.064Z,18.80
2018-06-10T07:44:56.135Z,18.82
2018-06-10T07:47:58.194Z,19.02
2018-06-10T07:51:00.287Z,17.98
2018-06-10T07:54:02.511Z,19.17
2018-06-10T07:57:04.629Z,17.67
2018-06-10T08:00:07.512Z,18.73
2018-06-10T08:03:09.522Z,18.40
2018-06-10T08:06:11.676Z,19.80
2018-06-10T08:09:13.823Z,20.03
2018-06-10T08:12:15.911Z,19.23
2018-06-10T08:15:18.092Z,21.83
2018-06-10T08:18:20.110Z,20.50
2018-06-10T08:21:22.800Z,20.30
2018-06-10T08:24:24.880Z,20.87
2018-06-10T08:27:26.951Z,21.17
2018-06-10T08:30:29.099Z,18.77
2018-06-10T08:33:31.233Z,19.53
2018-06-10T08:36:33.275Z,22.07
2018-06-10T08:39:35.753Z,21.47
2018-06-10T08:42:37.778Z,22.23
2018-06-10T08:45:39.839Z,21.60
2018-06-10T08:48:41.864Z,21.07
2018-06-10T08:51:43.903Z,20.20
2018-06-10T08:54:45.819Z,21.40
2018-06-10T08:57:47.843Z,22.60
2018-06-10T09:00:49.870Z,22.23
2018-06-10T09:03:53.030Z,25.27
2018-06-10T09:06:54.955Z,21.03
2018-06-10T09:09:57.102Z,22.43
2018-06-10T09:12:59.184Z,23.45
2018-06-10T09:16:01.379Z,24.00
2018-06-10T09:19:03.520Z,23.87
2018-06-10T09:22:05.620Z,23.27
2018-06-10T09:25:07.760Z,23.90
2018-06-10T09:28:10.759Z,25.00
2018-06-10T09:31:12.787Z,24.73
2018-06-10T09:34:14.815Z,27.23
2018-06-10T09:37:16.888Z,25.47
2018-06-10T09:40:18.931Z,26.23
2018-06-10T09:43:22.983Z,26.23
2018-06-10T09:46:25.021Z,24.90
2018-06-10T09:49:27.103Z,28.13
2018-06-10T09:52:29.039Z,25.27
2018-06-10T09:55:31.289Z,25.10
2018-06-10T09:58:33.204Z,28.27
2018-06-10T10:01:35.123Z,25.50
2018-06-10T10:04:37.262Z,26.37
2018-06-10T10:07:39.282Z,23.73
2018-06-10T10:10:41.367Z,24.33
2018-06-10T10:13:45.679Z,24.50
2018-06-10T10:16:47.832Z,24.53
2018-06-10T10:19:49.851Z,23.70
2018-06-10T10:22:52.552Z,22.47
2018-06-10T10:25:54.559Z,21.57
2018-06-10T10:28:56.567Z,21.23
2018-06-10T10:31:58.734Z,20.87
2018-06-10T10:35:00.787Z,21.43
2018-06-10T10:38:02.907Z,20.83
2018-06-10T10:41:05.111Z,23.57
2018-06-10T10:44:07.203Z,21.10
2018-06-10T10:47:09.268Z,19.17
2018-06-10T10:50:11.331Z,20.40
2018-06-10T10:53:13.258Z,20.27
2018-06-10T10:56:15.263Z,20.37
2018-06-10T10:59:17.441Z,18.60
2018-06-10T11:02:20.093Z,19.27
2018-06-10T11:05:22.082Z,19.33
2018-06-10T11:08:24.075Z,18.80
2018-06-10T11:11:26.195Z,17.07
2018-06-10T11:14:29.228Z,15.73
2018-06-10T11:17:31.495Z,15.57
2018-06-10T11:20:33.578Z,14.53
2018-06-10T11:23:35.644Z,14.33
2018-06-10T11:26:38.519Z,15.40
2018-06-10T11:29:40.611Z,13.77
2018-06-10T11:32:42.713Z,13.63
2018-06-10T11:35:44.764Z,15.60
2018-06-10T11:38:47.327Z,12.13
2018-06-10T11:41:49.405Z,12.50
2018-06-10T11:44:51.451Z,12.37
2018-06-10T11:47:53.530Z,11.80
2018-06-10T11:50:55.615Z,11.90
2018-06-10T11:53:57.654Z,11.63
2018-06-10T11:56:59.628Z,11.83
2018-06-10T12:00:01.731Z,11.17
2018-06-10T12:03:03.798Z,11.73
2018-06-10T12:06:05.975Z,11.60
2018-06-10T12:09:09.121Z,11.07
2018-06-10T12:12:11.189Z,10.93
2018-06-10T12:15:14.176Z,12.30
2018-06-10T12:18:16.257Z,11.73
2018-06-10T12:21:18.357Z,11.77
2018-06-10T12:24:20.486Z,10.70
2018-06-10T12:27:22.587Z,10.87
2018-06-10T12:30:24.622Z,11.90
2018-06-10T12:33:26.715Z,12.30
2018-06-10T12:36:28.719Z,12.53
2018-06-10T12:39:30.718Z,13.03
2018-06-10T12:42:32.865Z,11.67
2018-06-10T12:45:34.810Z,11.70
2018-06-10T12:48:36.831Z,11.27
2018-06-10T12:51:38.926Z,10.83
2018-06-10T12:54:40.983Z,9.93
2018-06-10T12:57:43.054Z,11.10
2018-06-10T13:00:45.131Z,9.57
2018-06-10T13:03:47.223Z,8.23
2018-06-10T13:07:08.257Z,8.83
2018-06-10T13:10:10.671Z,8.13
2018-06-10T13:13:12.770Z,8.20
2018-06-10T13:16:14.812Z,8.30
2018-06-10T13:19:16.881Z,8.27
2018-06-10T13:22:19.283Z,6.80
2018-06-10T13:25:21.298Z,7.17
2018-06-10T13:28:24.421Z,8.30
2018-06-10T13:31:26.480Z,8.80
2018-06-10T13:34:29.484Z,8.40
2018-06-10T13:37:31.424Z,8.80
2018-06-10T13:40:33.551Z,9.00
2018-06-10T13:43:35.463Z,8.13
2018-06-10T13:46:38.374Z,8.37
2018-06-10T13:49:40.472Z,8.30
2018-06-10T13:52:42.495Z,9.77
2018-06-10T13:55:44.567Z,8.50
2018-06-10T13:58:46.684Z,8.93
2018-06-10T14:01:48.679Z,8.00
2018-06-10T14:04:50.777Z,8.23
2018-06-10T14:07:52.870Z,8.80
2018-06-10T14:10:55.095Z,8.07
2018-06-10T14:13:57.170Z,9.80
2018-06-10T14:16:59.315Z,9.93
2018-06-10T14:20:01.408Z,11.70
2018-06-10T14:23:03.507Z,9.03
2018-06-10T14:26:06.822Z,9.30
2018-06-10T14:29:08.972Z,10.40
2018-06-10T14:32:12.068Z,8.83
2018-06-10T14:35:13.983Z,8.80
2018-06-10T14:38:16.086Z,10.57
2018-06-10T14:41:18.181Z,10.73
2018-06-10T14:44:20.270Z,7.90
2018-06-10T14:47:22.375Z,8.33
2018-06-10T14:50:24.646Z,7.60
2018-06-10T14:53:26.626Z,7.70
2018-06-10T14:56:29.816Z,6.63
2018-06-10T14:59:31.902Z,6.53
2018-06-10T15:02:33.998Z,7.20
2018-06-10T15:05:35.968Z,7.13
2018-06-10T15:08:37.958Z,6.43
2018-06-10T15:11:40.001Z,6.27
2018-06-10T15:14:42.023Z,6.70
2018-06-10T15:17:44.095Z,7.53
2018-06-10T15:20:46.176Z,7.27
2018-06-10T15:23:48.265Z,8.07
2018-06-10T15:26:50.324Z,7.33
2018-06-10T15:29:52.379Z,7.63
2018-06-10T15:32:54.338Z,7.10
2018-06-10T15:35:57.475Z,8.17
2018-06-10T15:38:59.555Z,7.67
2018-06-10T15:42:01.731Z,7.87
2018-06-10T15:45:03.888Z,8.17
2018-06-10T15:48:05.915Z,7.80
2018-06-10T15:51:09.044Z,8.10
2018-06-10T15:54:11.092Z,8.07
2018-06-10T15:57:13.139Z,6.57
2018-06-10T16:00:15.111Z,7.67
2018-06-10T16:03:17.205Z,8.00
2018-06-10T16:06:19.130Z,7.67
2018-06-10T16:09:21.218Z,7.53
2018-06-10T16:12:23.295Z,7.90
2018-06-10T16:15:25.364Z,8.37
2018-06-10T16:18:27.453Z,8.27
2018-06-10T16:21:29.486Z,8.00
2018-06-10T16:24:31.551Z,8.43
2018-06-10T16:27:34.534Z,8.07
2018-06-10T16:30:36.628Z,8.20
2018-06-10T16:33:39.805Z,7.77
2018-06-10T16:36:41.887Z,8.10
2018-06-10T16:39:43.964Z,7.73
2018-06-10T16:42:46.137Z,8.30
2018-06-10T16:45:49.198Z,8.33
2018-06-10T16:48:51.167Z,8.17
2018-06-10T16:51:53.259Z,7.70
2018-06-10T16:54:55.363Z,8.70
2018-06-10T16:57:57.473Z,8.50
2018-06-10T17:00:59.406Z,8.30
2018-06-10T17:04:01.461Z,8.50
2018-06-10T17:07:03.831Z,8.00
2018-06-10T17:10:05.924Z,7.80
2018-06-10T17:13:09.003Z,8.03
2018-06-10T17:16:11.068Z,8.33
2018-06-10T17:19:13.113Z,7.93
2018-06-10T17:22:15.998Z,8.33
2018-06-10T17:25:18.169Z,7.80
2018-06-10T17:28:20.374Z,7.87
2018-06-10T17:31:22.382Z,8.17
2018-06-10T17:34:24.434Z,8.53
2018-06-10T17:37:26.531Z,8.10
2018-06-10T17:40:28.843Z,8.40
2018-06-10T17:43:30.970Z,8.63
2018-06-10T17:46:32.891Z,8.10
2018-06-10T17:49:35.100Z,7.57
2018-06-10T17:52:37.311Z,8.40
2018-06-10T17:55:39.414Z,8.60
2018-06-10T17:58:41.414Z,8.10
2018-06-10T18:01:43.410Z,8.10
2018-06-10T18:04:46.682Z,8.33
2018-06-10T18:07:48.802Z,8.67
2018-06-10T18:10:54.608Z,9.27
2018-06-10T18:13:56.659Z,8.17
2018-06-10T18:16:58.721Z,9.53
2018-06-10T18:20:00.811Z,9.93
2018-06-10T18:23:02.911Z,9.57
2018-06-10T18:26:04.983Z,10.00
2018-06-10T18:29:07.013Z,9.80
2018-06-10T18:32:09.163Z,9.10
2018-06-10T18:35:11.246Z,9.30
2018-06-10T18:38:13.346Z,9.47
2018-06-10T18:41:16.601Z,9.10
2018-06-10T18:44:18.712Z,9.17
2018-06-10T18:47:20.835Z,8.30
2018-06-10T18:50:22.922Z,7.30
2018-06-10T18:53:26.006Z,8.13
2018-06-10T18:56:28.139Z,8.73
2018-06-10T18:59:30.135Z,8.30
2018-06-10T19:02:32.233Z,8.23
2018-06-10T19:05:34.291Z,7.60
2018-06-10T19:08:36.550Z,7.33
2018-06-10T19:11:38.668Z,7.37
2018-06-10T19:14:40.595Z,7.40
2018-06-10T19:17:42.674Z,6.90
2018-06-10T19:20:44.772Z,6.40
2018-06-10T19:23:46.917Z,7.57
2018-06-10T19:26:48.979Z,8.27
2018-06-10T19:29:51.073Z,7.13
2018-06-10T19:32:53.126Z,7.57
2018-06-10T19:35:55.217Z,7.53
2018-06-10T19:38:57.239Z,6.77
2018-06-10T19:41:59.211Z,6.57
2018-06-10T19:45:01.375Z,5.80
2018-06-10T19:48:03.472Z,5.03
2018-06-10T19:51:05.555Z,5.73
2018-06-10T19:54:07.591Z,5.40
2018-06-10T19:57:09.671Z,6.33
2018-06-10T20:00:11.730Z,6.17
2018-06-10T20:03:13.810Z,6.97
2018-06-10T20:06:17.176Z,6.87
2018-06-10T20:09:21.243Z,7.27
2018-06-10T20:12:23.261Z,7.20
2018-06-10T20:15:25.353Z,7.90
2018-06-10T20:18:27.398Z,7.83
2018-06-10T20:21:29.331Z,7.17
2018-06-10T20:24:35.283Z,7.33
2018-06-10T20:27:37.316Z,6.87
2018-06-10T20:30:39.450Z,6.77
2018-06-10T20:33:41.474Z,6.10
2018-06-10T20:36:43.533Z,5.97
2018-06-10T20:39:46.211Z,4.67
2018-06-10T20:42:48.278Z,4.77
2018-06-10T20:45:50.242Z,5.80
2018-06-10T20:48:52.207Z,4.90
2018-06-10T20:51:54.312Z,4.90
2018-06-10T20:54:56.477Z,4.70
2018-06-10T20:57:59.573Z,5.37
2018-06-10T21:01:01.626Z,5.00
2018-06-10T21:04:03.700Z,4.93
2018-06-10T21:07:05.749Z,4.70
2018-06-10T21:10:07.852Z,5.53
2018-06-10T21:13:09.873Z,5.20
2018-06-10T21:16:11.968Z,5.70
2018-06-10T21:19:14.011Z,5.47
2018-06-10T21:22:16.830Z,5.17
2018-06-10T21:25:18.855Z,5.53
2018-06-10T21:28:20.806Z,4.80
2018-06-10T21:31:22.795Z,4.50
2018-06-10T21:34:24.879Z,4.47
2018-06-10T21:37:26.931Z,4.83
2018-06-10T21:40:28.989Z,5.03
2018-06-10T21:43:30.966Z,6.30
2018-06-10T21:46:33.047Z,7.30
2018-06-10T21:49:35.099Z,7.67
2018-06-10T21:52:37.199Z,7.60
2018-06-10T21:55:39.259Z,7.30
2018-06-10T21:58:41.286Z,7.17
2018-06-10T22:01:43.319Z,7.63
2018-06-10T22:04:45.964Z,8.27
2018-06-10T22:07:48.060Z,6.83
2018-06-10T22:10:50.202Z,7.47
2018-06-10T22:13:52.267Z,7.80
2018-06-10T22:16:54.369Z,7.63
2018-06-10T22:19:59.421Z,8.03
2018-06-10T22:26:30.694Z,7.63
2018-06-10T22:29:37.070Z,7.97
2018-06-10T22:32:39.147Z,7.40
2018-06-10T22:35:41.234Z,8.07
2018-06-10T22:38:43.287Z,7.73
2018-06-10T22:41:45.569Z,7.47
2018-06-10T22:44:47.624Z,7.60
2018-06-10T22:47:49.711Z,7.83
2018-06-10T22:50:52.907Z,7.47
2018-06-10T22:54:36.520Z,7.70
2018-06-10T22:57:38.769Z,8.40
2018-06-10T23:00:40.781Z,7.53
2018-06-10T23:03:42.883Z,7.03
2018-06-10T23:06:44.903Z,7.57
2018-06-10T23:09:47.017Z,7.00
2018-06-10T23:12:49.154Z,7.10
2018-06-10T23:15:51.224Z,6.73
2018-06-10T23:18:53.944Z,6.87
2018-06-10T23:21:55.868Z,7.13
2018-06-10T23:24:57.975Z,7.20
2018-06-10T23:28:00.015Z,6.77
2018-06-10T23:31:01.964Z,6.67
2018-06-10T23:34:04.052Z,6.40
2018-06-10T23:37:06.127Z,6.47
2018-06-10T23:40:08.247Z,6.63
2018-06-10T23:43:10.350Z,6.73
2018-06-10T23:46:12.451Z,6.10
2018-06-10T23:49:14.979Z,5.87
2018-06-10T23:52:17.059Z,6.83
2018-06-10T23:55:18.967Z,6.10
2018-06-10T23:58:21.140Z,6.20
